createdAt,value
2017-10-18T00:01:24.955Z,13.93
2017-10-18T00:03:53.057Z,12.87
2017-10-18T00:06:21.913Z,12.87
2017-10-18T00:08:50.109Z,13.30
2017-10-18T00:11:18.195Z,15.13
2017-10-18T00:13:46.291Z,13.23
2017-10-18T00:16:14.372Z,13.20
2017-10-18T00:18:42.471Z,12.80
2017-10-18T00:21:10.607Z,13.40
2017-10-18T00:23:38.706Z,12.77
2017-10-18T00:26:06.778Z,13.00
2017-10-18T00:28:34.876Z,14.33
2017-10-18T00:31:04.474Z,13.73
2017-10-18T00:33:32.559Z,15.00
2017-10-18T00:36:01.410Z,13.27
2017-10-18T00:38:29.509Z,14.60
2017-10-18T00:40:57.631Z,13.83
2017-10-18T00:43:25.725Z,14.37
2017-10-18T00:45:53.812Z,15.33
2017-10-18T00:48:21.913Z,13.57
2017-10-18T00:50:50.766Z,14.80
2017-10-18T00:53:19.058Z,17.00
2017-10-18T00:55:47.912Z,16.40
2017-10-18T00:58:16.219Z,15.30
2017-10-18T01:00:44.304Z,16.20
2017-10-18T01:03:13.172Z,17.20
2017-10-18T01:05:41.265Z,15.87
2017-10-18T01:08:10.140Z,18.17
2017-10-18T01:10:38.407Z,14.40
2017-10-18T01:13:07.297Z,19.10
2017-10-18T01:15:35.393Z,14.70
2017-10-18T01:18:03.487Z,17.83
2017-10-18T01:20:31.711Z,15.80
2017-10-18T01:22:59.808Z,17.07
2017-10-18T01:25:28.667Z,16.53
2017-10-18T01:27:56.755Z,16.20
2017-10-18T01:30:25.608Z,15.60
2017-10-18T01:32:53.723Z,16.50
2017-10-18T01:35:21.811Z,15.80
2017-10-18T01:37:49.919Z,15.47
2017-10-18T01:40:18.013Z,15.60
2017-10-18T01:42:46.112Z,14.37
2017-10-18T01:45:14.964Z,14.50
2017-10-18T01:47:43.064Z,16.73
2017-10-18T01:50:11.970Z,15.57
2017-10-18T01:52:40.105Z,14.70
2017-10-18T01:55:08.196Z,14.60
2017-10-18T01:57:36.290Z,14.10
2017-10-18T02:00:04.394Z,12.03
2017-10-18T02:02:32.488Z,13.60
2017-10-18T02:05:00.588Z,14.50
2017-10-18T02:07:28.932Z,13.50
2017-10-18T02:09:57.024Z,13.93
2017-10-18T02:12:25.891Z,12.83
2017-10-18T02:14:53.984Z,11.90
2017-10-18T02:17:22.850Z,12.77
2017-10-18T02:19:50.947Z,12.87
2017-10-18T02:22:19.032Z,13.83
2017-10-18T02:24:47.139Z,13.37
2017-10-18T02:27:15.233Z,12.93
2017-10-18T02:29:43.427Z,12.47
2017-10-18T02:32:11.563Z,12.87
2017-10-18T02:34:39.664Z,11.83
2017-10-18T02:37:08.527Z,12.70
2017-10-18T02:39:36.624Z,14.23
2017-10-18T02:42:05.478Z,11.63
2017-10-18T02:44:33.567Z,12.30
2017-10-18T02:47:01.651Z,13.50
2017-10-18T02:49:30.627Z,13.00
2017-10-18T02:51:58.715Z,13.27
2017-10-18T02:54:26.803Z,13.00
2017-10-18T02:56:54.881Z,13.67
2017-10-18T02:59:22.968Z,15.30
2017-10-18T03:01:51.064Z,14.00
2017-10-18T03:04:19.159Z,12.60
2017-10-18T03:06:48.006Z,14.10
2017-10-18T03:09:16.100Z,14.83
2017-10-18T03:11:44.181Z,14.13
2017-10-18T03:14:12.271Z,12.10
2017-10-18T03:16:41.133Z,12.50
2017-10-18T03:19:09.264Z,13.50
2017-10-18T03:21:37.343Z,12.90
2017-10-18T03:24:05.438Z,13.97
2017-10-18T03:26:33.531Z,13.83
2017-10-18T03:29:02.379Z,14.37
2017-10-18T03:31:30.468Z,13.00
2017-10-18T03:33:58.551Z,13.50
2017-10-18T03:36:26.637Z,12.93
2017-10-18T03:38:54.728Z,12.93
2017-10-18T03:41:22.835Z,13.10
2017-10-18T03:43:51.035Z,13.13
2017-10-18T03:46:19.187Z,11.73
2017-10-18T03:48:47.380Z,12.40
2017-10-18T03:51:15.459Z,12.47
2017-10-18T03:53:44.311Z,12.80
2017-10-18T03:56:12.382Z,11.90
2017-10-18T03:58:40.476Z,14.70
2017-10-18T04:01:08.558Z,13.60
2017-10-18T04:03:36.642Z,13.77
2017-10-18T04:06:05.497Z,14.30
2017-10-18T04:08:33.584Z,12.80
2017-10-18T04:11:02.435Z,12.93
2017-10-18T04:13:30.535Z,12.67
2017-10-18T04:15:58.840Z,12.00
2017-10-18T04:18:27.684Z,12.60
2017-10-18T04:20:56.523Z,11.17
2017-10-18T04:23:24.610Z,12.67
2017-10-18T04:25:52.704Z,12.50
2017-10-18T04:28:20.822Z,13.17
2017-10-18T04:30:48.903Z,13.10
2017-10-18T04:33:16.988Z,13.53
2017-10-18T04:35:45.217Z,13.63
2017-10-18T04:38:14.819Z,13.43
2017-10-18T04:40:42.915Z,13.50
2017-10-18T04:43:11.763Z,14.87
2017-10-18T04:45:39.867Z,14.30
2017-10-18T04:48:08.717Z,15.10
2017-10-18T04:50:36.814Z,14.37
2017-10-18T04:53:04.883Z,14.13
2017-10-18T04:55:32.975Z,14.40
2017-10-18T04:58:01.818Z,14.20
2017-10-18T05:00:29.911Z,13.87
2017-10-18T05:02:58.000Z,14.57
2017-10-18T05:05:26.859Z,21.00
2017-10-18T05:07:55.045Z,17.83
2017-10-18T05:10:23.141Z,16.23
2017-10-18T05:12:51.232Z,14.73
2017-10-18T05:15:19.319Z,17.20
2017-10-18T05:17:47.403Z,14.40
2017-10-18T05:20:15.543Z,16.03
2017-10-18T05:22:43.626Z,16.50
2017-10-18T05:25:11.708Z,15.00
2017-10-18T05:27:39.801Z,15.70
2017-10-18T05:30:07.886Z,14.70
2017-10-18T05:32:36.770Z,12.97
2017-10-18T05:35:04.850Z,13.40
2017-10-18T05:37:33.696Z,16.30
2017-10-18T05:40:01.784Z,14.80
2017-10-18T05:42:29.878Z,15.50
2017-10-18T05:44:58.733Z,17.90
2017-10-18T05:47:26.814Z,15.50
2017-10-18T05:49:54.908Z,17.40
2017-10-18T05:52:22.988Z,16.20
2017-10-18T05:54:51.074Z,14.37
2017-10-18T05:57:19.185Z,15.70
2017-10-18T05:59:47.287Z,15.40
2017-10-18T06:02:16.136Z,14.70
2017-10-18T06:04:44.232Z,14.27
2017-10-18T06:07:12.317Z,16.37
2017-10-18T06:09:41.253Z,13.83
2017-10-18T06:12:09.336Z,13.13
2017-10-18T06:14:37.429Z,12.40
2017-10-18T06:17:05.511Z,14.30
2017-10-18T06:19:34.371Z,12.83
2017-10-18T06:22:02.455Z,13.07
2017-10-18T06:24:30.551Z,14.60
2017-10-18T06:26:59.390Z,14.60
2017-10-18T06:29:27.552Z,13.20
2017-10-18T06:31:55.632Z,13.33
2017-10-18T06:34:23.723Z,13.80
2017-10-18T06:36:51.803Z,12.80
2017-10-18T06:39:19.900Z,14.00
2017-10-18T06:41:48.871Z,13.10
2017-10-18T06:44:16.964Z,12.97
2017-10-18T06:46:45.220Z,14.30
2017-10-18T06:49:13.362Z,13.90
2017-10-18T06:51:41.556Z,14.20
2017-10-18T06:54:10.442Z,11.53
2017-10-18T06:56:38.532Z,12.30
2017-10-18T06:59:06.674Z,11.70
2017-10-18T07:01:34.859Z,11.70
2017-10-18T07:04:02.970Z,10.80
2017-10-18T07:06:31.043Z,11.53
2017-10-18T07:08:59.156Z,12.40
2017-10-18T07:11:27.235Z,13.57
2017-10-18T07:13:55.321Z,11.97
2017-10-18T07:16:24.172Z,11.20
2017-10-18T07:18:52.261Z,10.87
2017-10-18T07:21:20.347Z,11.23
2017-10-18T07:23:49.193Z,9.33
2017-10-18T07:26:17.275Z,9.50
2017-10-18T07:28:45.470Z,9.60
2017-10-18T07:31:13.550Z,10.20
2017-10-18T07:33:41.810Z,10.57
2017-10-18T07:36:11.419Z,11.00
2017-10-18T07:38:40.259Z,12.00
2017-10-18T07:41:08.366Z,12.93
2017-10-18T07:43:36.453Z,12.00
2017-10-18T07:46:05.314Z,18.10
2017-10-18T07:48:33.516Z,13.60
2017-10-18T07:51:01.603Z,12.33
2017-10-18T07:53:30.455Z,11.23
2017-10-18T07:55:58.550Z,10.80
2017-10-18T07:58:26.640Z,10.73
2017-10-18T08:00:54.728Z,12.80
2017-10-18T08:03:22.824Z,11.03
2017-10-18T08:05:50.907Z,11.20
2017-10-18T08:08:18.991Z,11.93
2017-10-18T08:10:47.377Z,13.87
2017-10-18T08:13:15.457Z,12.10
2017-10-18T08:15:43.603Z,11.50
2017-10-18T08:18:11.691Z,10.83
2017-10-18T08:20:39.780Z,10.77
2017-10-18T08:23:08.632Z,11.53
2017-10-18T08:25:36.724Z,10.40
2017-10-18T08:28:05.571Z,13.00
2017-10-18T08:30:33.661Z,10.53
2017-10-18T08:33:01.747Z,11.53
2017-10-18T08:35:29.842Z,10.10
2017-10-18T08:37:57.932Z,10.10
2017-10-18T08:40:26.035Z,10.27
2017-10-18T08:42:54.132Z,12.07
2017-10-18T08:45:23.109Z,13.60
2017-10-18T08:47:51.195Z,13.57
2017-10-18T08:50:19.291Z,12.30
2017-10-18T08:52:47.432Z,12.20
2017-10-18T08:55:16.292Z,10.50
2017-10-18T08:57:44.382Z,9.93
2017-10-18T09:00:12.696Z,11.70
2017-10-18T09:02:40.559Z,12.20
2017-10-18T09:05:08.643Z,13.20
2017-10-18T09:07:36.737Z,13.30
2017-10-18T09:10:04.891Z,10.30
2017-10-18T09:12:32.973Z,10.60
2017-10-18T09:15:01.067Z,11.50
2017-10-18T09:17:29.355Z,11.40
2017-10-18T09:19:57.444Z,12.47
2017-10-18T09:22:26.300Z,11.13
2017-10-18T09:24:54.388Z,10.27
2017-10-18T09:27:22.467Z,10.97
2017-10-18T09:29:51.319Z,10.53
2017-10-18T09:32:19.490Z,11.23
2017-10-18T09:34:47.589Z,11.47
2017-10-18T09:37:15.667Z,12.00
2017-10-18T09:39:43.857Z,13.07
2017-10-18T09:42:12.707Z,13.23
2017-10-18T09:44:40.800Z,11.83
2017-10-18T09:47:09.657Z,13.67
2017-10-18T09:49:37.776Z,12.40
2017-10-18T09:52:05.890Z,14.20
2017-10-18T09:54:33.975Z,14.47
2017-10-18T09:57:02.072Z,11.87
2017-10-18T09:59:30.171Z,11.50
2017-10-18T10:01:58.267Z,10.90
2017-10-18T10:04:26.356Z,12.70
2017-10-18T10:06:54.440Z,13.00
2017-10-18T10:09:22.528Z,12.43
2017-10-18T10:11:51.379Z,12.90
2017-10-18T10:14:19.459Z,13.13
2017-10-18T10:16:47.557Z,12.80
2017-10-18T10:19:16.409Z,13.73
2017-10-18T10:21:44.504Z,13.20
2017-10-18T10:24:12.596Z,13.90
2017-10-18T10:26:41.457Z,12.10
2017-10-18T10:29:09.554Z,16.80
2017-10-18T10:31:38.404Z,17.60
2017-10-18T10:34:06.499Z,17.73
2017-10-18T10:36:35.359Z,18.20
2017-10-18T10:39:03.449Z,18.97
2017-10-18T11:05:11.091Z,17.10
2017-10-18T11:07:39.177Z,15.60
2017-10-18T11:10:08.101Z,17.80
2017-10-18T11:12:36.187Z,19.30
2017-10-18T11:15:04.277Z,17.43
2017-10-18T11:17:32.355Z,19.13
2017-10-18T11:20:00.439Z,16.33
2017-10-18T11:22:29.303Z,17.80
2017-10-18T11:24:57.393Z,18.83
2017-10-18T11:27:25.483Z,16.40
2017-10-18T11:29:54.335Z,17.17
2017-10-18T11:32:22.435Z,18.43
2017-10-18T11:34:51.271Z,18.70
2017-10-18T11:37:19.362Z,20.43
2017-10-18T11:39:47.457Z,18.27
2017-10-18T11:42:16.307Z,16.90
2017-10-18T11:44:44.399Z,15.10
2017-10-18T11:47:12.492Z,17.20
2017-10-18T11:49:41.334Z,15.77
2017-10-18T11:52:09.430Z,15.50
2017-10-18T11:54:37.540Z,37.77
2017-10-18T12:03:35.572Z,13.73
2017-10-18T12:06:03.698Z,15.80
2017-10-18T12:08:32.543Z,16.47
2017-10-18T12:11:00.641Z,13.77
2017-10-18T12:13:28.732Z,14.30
2017-10-18T12:15:57.587Z,13.47
2017-10-18T12:18:25.680Z,12.87
2017-10-18T12:20:53.771Z,11.53
2017-10-18T12:23:21.863Z,14.13
2017-10-18T12:25:49.955Z,12.80
2017-10-18T12:28:18.043Z,9.70
2017-10-18T12:30:46.133Z,12.50
2017-10-18T12:33:14.978Z,12.03
2017-10-18T12:35:43.069Z,12.87
2017-10-18T12:38:11.164Z,13.07
2017-10-18T12:40:40.090Z,18.13
2017-10-18T12:43:08.170Z,13.80
2017-10-18T12:45:36.262Z,13.87
2017-10-18T12:48:04.340Z,16.40
2017-10-18T12:50:32.473Z,17.20
2017-10-18T12:53:00.569Z,14.37
2017-10-18T12:55:28.674Z,14.07
2017-10-18T12:57:57.528Z,15.17
2017-10-18T13:00:25.619Z,14.90
2017-10-18T13:02:53.708Z,12.10
2017-10-18T13:05:22.555Z,17.33
2017-10-18T13:07:50.643Z,13.33
2017-10-18T13:10:18.737Z,12.77
2017-10-18T13:12:47.599Z,13.87
2017-10-18T13:15:15.699Z,14.30
2017-10-18T13:17:44.556Z,20.40
2017-10-18T13:20:12.636Z,15.33
2017-10-18T13:22:40.724Z,13.20
2017-10-18T13:25:09.576Z,13.13
2017-10-18T13:27:37.655Z,14.07
2017-10-18T13:30:05.748Z,14.27
2017-10-18T13:32:33.839Z,14.03
2017-10-18T13:35:02.703Z,12.00
2017-10-18T13:37:30.799Z,12.90
2017-10-18T13:39:59.645Z,12.40
2017-10-18T13:42:27.735Z,11.67
2017-10-18T13:44:55.826Z,11.53
2017-10-18T13:47:24.684Z,13.50
2017-10-18T13:49:52.768Z,12.27
2017-10-18T13:52:20.861Z,11.23
2017-10-18T13:54:48.949Z,11.37
2017-10-18T13:57:17.044Z,11.13
2017-10-18T13:59:45.139Z,10.30
2017-10-18T14:02:13.228Z,9.90
2017-10-18T14:04:42.843Z,10.23
2017-10-18T14:07:10.933Z,10.70
2017-10-18T14:09:39.835Z,11.03
2017-10-18T14:12:07.961Z,20.80
2017-10-18T14:14:36.047Z,13.30
2017-10-18T14:17:04.145Z,10.33
2017-10-18T14:19:32.223Z,10.00
2017-10-18T14:22:00.452Z,8.93
2017-10-18T14:24:28.535Z,8.47
2017-10-18T14:26:57.400Z,9.53
2017-10-18T14:29:25.497Z,18.77
2017-10-18T14:31:54.351Z,13.07
2017-10-18T14:34:22.461Z,10.00
2017-10-18T14:36:51.312Z,11.53
2017-10-18T14:39:19.421Z,9.90
2017-10-18T14:41:48.277Z,10.80
2017-10-18T14:44:16.358Z,12.30
2017-10-18T14:46:44.460Z,11.57
2017-10-18T14:49:13.303Z,13.20
2017-10-18T14:51:41.408Z,11.80
2017-10-18T14:54:10.259Z,12.77
2017-10-18T14:56:38.369Z,11.73
2017-10-18T14:59:07.219Z,13.10
2017-10-18T15:01:35.307Z,10.70
2017-10-18T15:04:03.388Z,13.07
2017-10-18T15:06:32.238Z,11.83
2017-10-18T15:09:00.324Z,13.90
2017-10-18T15:11:28.422Z,12.90
2017-10-18T15:13:57.273Z,11.90
2017-10-18T15:16:25.392Z,13.53
2017-10-18T15:18:53.470Z,12.03
2017-10-18T15:21:21.570Z,39.27
2017-10-18T15:23:49.647Z,14.67
2017-10-18T15:26:17.776Z,16.10
2017-10-18T15:28:46.611Z,15.53
2017-10-18T15:31:14.703Z,12.43
2017-10-18T15:33:42.798Z,12.70
2017-10-18T15:36:11.660Z,13.30
2017-10-18T15:38:39.744Z,13.93
2017-10-18T15:41:08.595Z,13.30
2017-10-18T15:43:36.690Z,11.80
2017-10-18T15:46:04.775Z,11.80
2017-10-18T15:48:39.496Z,12.00
2017-10-18T15:51:08.356Z,11.10
2017-10-18T15:53:36.457Z,12.73
2017-10-18T15:56:04.556Z,11.20
2017-10-18T15:58:32.672Z,11.83
2017-10-18T16:01:00.768Z,13.40
2017-10-18T16:03:29.624Z,11.07
2017-10-18T16:05:57.712Z,12.90
2017-10-18T16:08:25.804Z,11.60
2017-10-18T16:10:54.723Z,10.43
2017-10-18T16:13:22.823Z,10.13
2017-10-18T16:15:50.908Z,11.23
2017-10-18T16:18:18.999Z,11.00
2017-10-18T16:20:47.848Z,11.10
2017-10-18T16:23:15.939Z,10.33
2017-10-18T16:25:44.019Z,10.53
2017-10-18T16:28:12.122Z,10.70
2017-10-18T16:30:40.307Z,10.50
2017-10-18T16:33:08.394Z,11.33
2017-10-18T16:35:36.520Z,11.50
2017-10-18T16:38:05.378Z,11.60
2017-10-18T16:40:33.491Z,11.17
2017-10-18T16:43:02.343Z,11.90
2017-10-18T16:45:30.428Z,12.67
2017-10-18T16:47:58.509Z,11.27
2017-10-18T16:50:27.371Z,11.03
2017-10-18T16:52:55.467Z,11.93
2017-10-18T16:55:24.324Z,12.03
2017-10-18T16:57:52.411Z,11.47
2017-10-18T17:00:20.506Z,11.37
2017-10-18T17:02:49.357Z,10.90
2017-10-18T17:05:17.448Z,11.23
2017-10-18T17:07:46.300Z,12.50
2017-10-18T17:10:14.388Z,11.80
2017-10-18T17:12:42.464Z,12.17
2017-10-18T17:15:10.559Z,11.93
2017-10-18T17:17:39.406Z,12.10
2017-10-18T17:20:07.487Z,11.80
2017-10-18T17:22:35.567Z,12.87
2017-10-18T17:25:03.669Z,12.20
2017-10-18T17:27:31.821Z,12.70
2017-10-18T17:30:00.696Z,12.13
2017-10-18T17:32:28.799Z,14.10
2017-10-18T17:34:57.643Z,16.03
2017-10-18T17:37:25.724Z,14.00
2017-10-18T17:39:53.811Z,14.47
2017-10-18T17:42:22.681Z,14.53
2017-10-18T17:44:50.769Z,15.40
2017-10-18T17:47:19.632Z,20.10
2017-10-18T17:49:47.726Z,21.97
2017-10-18T17:52:16.583Z,23.97
2017-10-18T17:54:44.663Z,33.40
2017-10-18T17:57:12.764Z,36.20
2017-10-18T17:59:41.604Z,29.97
2017-10-18T18:02:09.789Z,28.97
2017-10-18T18:04:37.901Z,23.67
2017-10-18T18:07:06.767Z,58.90
2017-10-18T18:09:34.863Z,24.30
2017-10-18T18:12:02.955Z,22.73
2017-10-18T18:14:31.052Z,22.87
2017-10-18T18:16:59.143Z,21.90
2017-10-18T18:19:27.231Z,21.13
2017-10-18T18:21:56.091Z,19.67
2017-10-18T18:24:24.205Z,17.70
2017-10-18T18:26:53.067Z,16.87
2017-10-18T18:29:21.151Z,22.80
2017-10-18T18:31:50.025Z,28.80
2017-10-18T18:34:18.111Z,20.57
2017-10-18T18:36:46.972Z,19.30
2017-10-18T18:39:15.111Z,18.80
2017-10-18T18:41:43.617Z,27.40
2017-10-18T18:44:12.034Z,27.50
2017-10-18T18:46:40.267Z,24.20
2017-10-18T18:49:08.517Z,34.00
2017-10-18T18:51:36.891Z,26.97
2017-10-18T18:54:05.857Z,18.50
2017-10-18T18:56:34.821Z,16.00
2017-10-18T18:59:03.143Z,18.37
2017-10-18T19:01:31.300Z,28.40
2017-10-18T19:03:59.764Z,39.63
2017-10-18T19:06:27.914Z,23.67
2017-10-18T19:08:56.010Z,20.53
2017-10-18T19:11:24.867Z,30.67
2017-10-18T19:13:52.956Z,25.07
2017-10-18T19:16:21.810Z,18.20
2017-10-18T19:18:49.892Z,17.67
2017-10-18T19:21:18.023Z,18.57
2017-10-18T19:23:46.117Z,16.80
2017-10-18T19:26:14.214Z,14.07
2017-10-18T19:28:42.308Z,14.70
2017-10-18T19:31:11.167Z,19.60
2017-10-18T19:33:39.259Z,21.30
2017-10-18T19:36:08.107Z,21.17
2017-10-18T19:38:36.200Z,23.83
2017-10-18T19:41:04.282Z,23.53
2017-10-18T19:43:32.364Z,24.60
2017-10-18T19:46:01.212Z,21.00
2017-10-18T19:48:29.296Z,20.17
2017-10-18T19:50:57.400Z,17.17
2017-10-18T19:53:26.256Z,17.30
2017-10-18T19:55:54.340Z,16.77
2017-10-18T19:58:22.440Z,17.13
2017-10-18T20:00:50.511Z,15.93
2017-10-18T20:03:18.600Z,15.60
2017-10-18T20:05:46.683Z,14.43
2017-10-18T20:08:14.793Z,14.07
2017-10-18T20:10:42.903Z,15.10
2017-10-18T20:13:10.996Z,14.60
2017-10-18T20:15:39.080Z,14.40
2017-10-18T20:18:07.180Z,15.50
2017-10-18T20:20:35.264Z,14.60
2017-10-18T20:23:04.172Z,13.90
2017-10-18T20:25:32.274Z,16.37
2017-10-18T20:28:00.372Z,15.10
2017-10-18T20:30:28.456Z,14.70
2017-10-18T20:32:57.313Z,15.80
2017-10-18T20:35:25.398Z,14.20
2017-10-18T20:37:53.500Z,14.90
2017-10-18T20:40:21.590Z,14.47
2017-10-18T20:42:49.688Z,17.90
2017-10-18T20:45:18.002Z,22.03
2017-10-18T20:47:46.887Z,15.93
2017-10-18T20:50:14.953Z,16.27
2017-10-18T20:52:43.047Z,14.53
2017-10-18T20:55:11.137Z,14.90
2017-10-18T20:57:39.228Z,14.63
2017-10-18T21:00:07.309Z,14.43
2017-10-18T21:02:35.409Z,14.63
2017-10-18T21:05:04.256Z,15.70
2017-10-18T21:07:32.351Z,16.03
2017-10-18T21:10:00.471Z,14.97
2017-10-18T21:12:28.581Z,16.50
2017-10-18T21:14:56.679Z,14.47
2017-10-18T21:17:25.548Z,12.57
2017-10-18T21:19:53.639Z,13.93
2017-10-18T21:22:22.503Z,14.80
2017-10-18T21:24:50.604Z,16.27
2017-10-18T21:27:19.455Z,16.90
2017-10-18T21:29:47.548Z,14.63
2017-10-18T21:32:15.636Z,15.77
2017-10-18T21:34:44.508Z,14.93
2017-10-18T21:37:12.603Z,14.90
2017-10-18T21:39:40.817Z,15.03
2017-10-18T21:42:08.904Z,14.50
2017-10-18T21:44:37.164Z,15.33
2017-10-18T21:47:05.250Z,13.90
2017-10-18T21:49:33.339Z,15.33
2017-10-18T21:52:02.191Z,15.33
2017-10-18T21:54:30.284Z,14.63
2017-10-18T21:56:58.381Z,14.40
2017-10-18T21:59:27.227Z,16.23
2017-10-18T22:01:55.324Z,15.40
2017-10-18T22:04:23.413Z,18.40
2017-10-18T22:06:52.275Z,21.90
2017-10-18T22:09:20.359Z,21.40
2017-10-18T22:11:49.217Z,22.93
2017-10-18T22:14:17.307Z,20.77
2017-10-18T22:16:45.395Z,20.10
2017-10-18T22:19:14.243Z,25.30
2017-10-18T22:21:42.347Z,25.20
2017-10-18T22:24:11.197Z,24.13
2017-10-18T22:26:39.308Z,29.10
2017-10-18T22:29:07.395Z,29.73
2017-10-18T22:31:35.500Z,28.67
2017-10-18T22:34:03.586Z,22.07
2017-10-18T22:36:31.687Z,16.30
2017-10-18T22:39:00.541Z,20.57
2017-10-18T22:41:28.648Z,18.80
2017-10-18T22:43:56.733Z,16.17
2017-10-18T22:46:25.593Z,15.77
2017-10-18T22:48:53.688Z,15.60
2017-10-18T22:51:22.543Z,16.43
2017-10-18T22:53:50.636Z,15.90
2017-10-18T22:56:19.495Z,14.53
2017-10-18T22:58:47.594Z,16.23
2017-10-18T23:01:15.715Z,20.37
2017-10-18T23:03:43.807Z,19.60
2017-10-18T23:06:11.907Z,21.00
2017-10-18T23:08:40.764Z,18.63
2017-10-18T23:11:08.867Z,14.90
2017-10-18T23:13:37.723Z,14.87
2017-10-18T23:16:05.868Z,15.63
2017-10-18T23:18:33.939Z,15.10
2017-10-18T23:21:02.043Z,14.70
2017-10-18T23:23:30.125Z,15.63
2017-10-18T23:25:58.215Z,17.10
2017-10-18T23:28:27.061Z,14.97
2017-10-18T23:30:55.143Z,18.80
2017-10-18T23:33:23.228Z,15.60
2017-10-18T23:35:51.324Z,15.90
2017-10-18T23:38:20.175Z,15.63
2017-10-18T23:40:48.250Z,13.77
2017-10-18T23:43:16.340Z,16.20
2017-10-18T23:45:45.187Z,15.43
2017-10-18T23:48:13.274Z,13.60
2017-10-18T23:50:41.368Z,13.03
2017-10-18T23:53:10.225Z,12.43
2017-10-18T23:55:38.312Z,15.03
2017-10-18T23:58:06.407Z,13.80
